sensor_id;sensor_type;location;lat;lon;timestamp;temperature;humidity
56240;DHT22;42154;51.992;5.896;2023-05-10T00:00:51;14.50;99.90
56240;DHT22;42154;51.992;5.896;2023-05-10T00:03:17;14.50;99.90
56240;DHT22;42154;51.992;5.896;2023-05-10T00:05:43;14.50;99.90
56240;DHT22;42154;51.992;5.896;2023-05-10T00:08:08;14.60;99.90
56240;DHT22;42154;51.992;5.896;2023-05-10T00:10:34;14.60;99.90
56240;DHT22;42154;51.992;5.896;2023-05-10T00:13:00;14.60;99.90
56240;DHT22;42154;51.992;5.896;2023-05-10T00:15:25;14.60;99.90
56240;DHT22;42154;51.992;5.896;2023-05-10T00:17:51;14.70;99.90
56240;DHT22;42154;51.992;5.896;2023-05-10T00:20:17;14.60;99.90
56240;DHT22;42154;51.992;5.896;2023-05-10T00:22:43;14.70;99.90
56240;DHT22;42154;51.992;5.896;2023-05-10T00:25:08;14.60;99.90
56240;DHT22;42154;51.992;5.896;2023-05-10T00:27:34;14.60;99.90
56240;DHT22;42154;51.992;5.896;2023-05-10T00:30:00;14.60;99.90
56240;DHT22;42154;51.992;5.896;2023-05-10T00:32:26;14.60;99.90
56240;DHT22;42154;51.992;5.896;2023-05-10T00:34:52;14.70;99.90
56240;DHT22;42154;51.992;5.896;2023-05-10T00:37:17;14.70;99.90
56240;DHT22;42154;51.992;5.896;2023-05-10T00:39:43;14.60;99.90
56240;DHT22;42154;51.992;5.896;2023-05-10T00:42:10;14.70;99.90
56240;DHT22;42154;51.992;5.896;2023-05-10T00:44:36;14.60;99.90
56240;DHT22;42154;51.992;5.896;2023-05-10T00:47:02;14.70;99.90
56240;DHT22;42154;51.992;5.896;2023-05-10T00:49:28;14.70;99.90
56240;DHT22;42154;51.992;5.896;2023-05-10T00:51:54;14.70;99.90
56240;DHT22;42154;51.992;5.896;2023-05-10T00:54:20;14.70;99.90
56240;DHT22;42154;51.992;5.896;2023-05-10T00:56:46;14.70;99.90
56240;DHT22;42154;51.992;5.896;2023-05-10T00:59:15;14.60;99.90
56240;DHT22;42154;51.992;5.896;2023-05-10T01:01:43;14.60;99.90
56240;DHT22;42154;51.992;5.896;2023-05-10T01:04:11;14.60;99.90
56240;DHT22;42154;51.992;5.896;2023-05-10T01:06:38;14.60;99.90
56240;DHT22;42154;51.992;5.896;2023-05-10T01:09:04;14.70;99.90
56240;DHT22;42154;51.992;5.896;2023-05-10T01:11:29;14.60;99.90
56240;DHT22;42154;51.992;5.896;2023-05-10T01:13:56;14.60;99.90
56240;DHT22;42154;51.992;5.896;2023-05-10T01:16:24;14.60;99.90
56240;DHT22;42154;51.992;5.896;2023-05-10T01:18:51;14.60;99.90
56240;DHT22;42154;51.992;5.896;2023-05-10T01:35:26;14.60;99.90
56240;DHT22;42154;51.992;5.896;2023-05-10T01:38:22;14.60;99.90
56240;DHT22;42154;51.992;5.896;2023-05-10T01:41:17;14.60;99.90
56240;DHT22;42154;51.992;5.896;2023-05-10T01:46:17;14.60;99.90
56240;DHT22;42154;51.992;5.896;2023-05-10T01:48:54;14.60;99.90
56240;DHT22;42154;51.992;5.896;2023-05-10T01:51:23;14.60;99.90
56240;DHT22;42154;51.992;5.896;2023-05-10T01:53:56;14.60;99.90
56240;DHT22;42154;51.992;5.896;2023-05-10T01:56:26;14.60;99.90
56240;DHT22;42154;51.992;5.896;2023-05-10T01:58:54;14.60;99.90
56240;DHT22;42154;51.992;5.896;2023-05-10T02:01:21;14.60;99.90
56240;DHT22;42154;51.992;5.896;2023-05-10T02:03:49;14.60;99.90
56240;DHT22;42154;51.992;5.896;2023-05-10T02:06:18;14.60;99.90
56240;DHT22;42154;51.992;5.896;2023-05-10T02:08:45;14.60;99.90
56240;DHT22;42154;51.992;5.896;2023-05-10T02:11:13;14.60;99.90
56240;DHT22;42154;51.992;5.896;2023-05-10T02:13:40;14.60;99.90
56240;DHT22;42154;51.992;5.896;2023-05-10T02:16:07;14.70;99.90
56240;DHT22;42154;51.992;5.896;2023-05-10T02:18:34;14.60;99.90
56240;DHT22;42154;51.992;5.896;2023-05-10T02:21:02;14.60;99.90
56240;DHT22;42154;51.992;5.896;2023-05-10T02:23:29;14.70;99.90
56240;DHT22;42154;51.992;5.896;2023-05-10T02:25:57;14.60;99.90
56240;DHT22;42154;51.992;5.896;2023-05-10T02:28:24;14.60;99.90
56240;DHT22;42154;51.992;5.896;2023-05-10T02:30:51;14.60;99.90
56240;DHT22;42154;51.992;5.896;2023-05-10T02:33:18;14.60;99.90
56240;DHT22;42154;51.992;5.896;2023-05-10T02:35:46;14.60;99.90
56240;DHT22;42154;51.992;5.896;2023-05-10T02:38:14;14.60;99.90
56240;DHT22;42154;51.992;5.896;2023-05-10T02:40:41;14.60;99.90
56240;DHT22;42154;51.992;5.896;2023-05-10T02:43:12;14.60;99.90
56240;DHT22;42154;51.992;5.896;2023-05-10T02:45:40;14.60;99.90
56240;DHT22;42154;51.992;5.896;2023-05-10T02:48:08;14.60;99.90
56240;DHT22;42154;51.992;5.896;2023-05-10T02:50:35;14.60;99.90
56240;DHT22;42154;51.992;5.896;2023-05-10T02:53:09;14.60;99.90
56240;DHT22;42154;51.992;5.896;2023-05-10T02:55:39;14.60;99.90
56240;DHT22;42154;51.992;5.896;2023-05-10T02:58:06;14.60;99.90
56240;DHT22;42154;51.992;5.896;2023-05-10T03:00:31;14.50;99.90
56240;DHT22;42154;51.992;5.896;2023-05-10T03:02:57;14.50;99.90
56240;DHT22;42154;51.992;5.896;2023-05-10T03:05:24;14.50;99.90
56240;DHT22;42154;51.992;5.896;2023-05-10T03:07:50;14.50;99.90
56240;DHT22;42154;51.992;5.896;2023-05-10T03:10:18;14.50;99.90
56240;DHT22;42154;51.992;5.896;2023-05-10T03:15:59;14.50;99.90
56240;DHT22;42154;51.992;5.896;2023-05-10T03:21:11;14.40;99.90
56240;DHT22;42154;51.992;5.896;2023-05-10T03:23:50;14.40;99.90
56240;DHT22;42154;51.992;5.896;2023-05-10T03:26:24;14.50;99.90
56240;DHT22;42154;51.992;5.896;2023-05-10T03:28:57;14.50;99.90
56240;DHT22;42154;51.992;5.896;2023-05-10T03:31:24;14.50;99.90
56240;DHT22;42154;51.992;5.896;2023-05-10T03:33:51;14.50;99.90
56240;DHT22;42154;51.992;5.896;2023-05-10T03:36:22;14.40;99.90
56240;DHT22;42154;51.992;5.896;2023-05-10T03:38:48;14.40;99.90
56240;DHT22;42154;51.992;5.896;2023-05-10T03:41:13;14.50;99.90
56240;DHT22;42154;51.992;5.896;2023-05-10T03:43:39;14.40;99.90
56240;DHT22;42154;51.992;5.896;2023-05-10T03:46:06;14.40;99.90
56240;DHT22;42154;51.992;5.896;2023-05-10T03:48:33;14.40;99.90
56240;DHT22;42154;51.992;5.896;2023-05-10T03:50:59;14.40;99.90
56240;DHT22;42154;51.992;5.896;2023-05-10T03:53:25;14.30;99.90
56240;DHT22;42154;51.992;5.896;2023-05-10T03:55:50;14.30;99.90
56240;DHT22;42154;51.992;5.896;2023-05-10T03:58:16;14.30;99.90
56240;DHT22;42154;51.992;5.896;2023-05-10T04:00:42;14.20;99.90
56240;DHT22;42154;51.992;5.896;2023-05-10T04:03:12;14.20;99.90
56240;DHT22;42154;51.992;5.896;2023-05-10T04:05:37;14.20;99.90
56240;DHT22;42154;51.992;5.896;2023-05-10T04:08:04;14.20;99.90
56240;DHT22;42154;51.992;5.896;2023-05-10T04:10:30;14.20;99.90
56240;DHT22;42154;51.992;5.896;2023-05-10T04:12:56;14.20;99.90
56240;DHT22;42154;51.992;5.896;2023-05-10T04:15:22;14.20;99.90
56240;DHT22;42154;51.992;5.896;2023-05-10T04:17:48;14.20;99.90
56240;DHT22;42154;51.992;5.896;2023-05-10T04:20:14;14.20;99.90
56240;DHT22;42154;51.992;5.896;2023-05-10T04:22:39;14.20;99.90
56240;DHT22;42154;51.992;5.896;2023-05-10T04:25:06;14.20;99.90
56240;DHT22;42154;51.992;5.896;2023-05-10T04:27:32;14.20;99.90
56240;DHT22;42154;51.992;5.896;2023-05-10T04:29:58;14.20;99.90
56240;DHT22;42154;51.992;5.896;2023-05-10T04:32:24;14.20;99.90
56240;DHT22;42154;51.992;5.896;2023-05-10T04:34:49;14.20;99.90
56240;DHT22;42154;51.992;5.896;2023-05-10T04:37:17;14.20;99.90
56240;DHT22;42154;51.992;5.896;2023-05-10T04:39:43;14.20;99.90
56240;DHT22;42154;51.992;5.896;2023-05-10T04:42:09;14.10;99.90
56240;DHT22;42154;51.992;5.896;2023-05-10T04:44:35;14.10;99.90
56240;DHT22;42154;51.992;5.896;2023-05-10T04:47:01;14.10;99.90
56240;DHT22;42154;51.992;5.896;2023-05-10T04:49:28;14.10;99.90
56240;DHT22;42154;51.992;5.896;2023-05-10T04:51:55;14.10;99.90
56240;DHT22;42154;51.992;5.896;2023-05-10T04:54:21;14.10;99.90
56240;DHT22;42154;51.992;5.896;2023-05-10T04:56:46;14.10;99.90
56240;DHT22;42154;51.992;5.896;2023-05-10T04:59:12;14.10;99.90
56240;DHT22;42154;51.992;5.896;2023-05-10T05:01:39;14.10;99.90
56240;DHT22;42154;51.992;5.896;2023-05-10T05:04:04;14.10;99.90
56240;DHT22;42154;51.992;5.896;2023-05-10T05:06:30;14.10;99.90
56240;DHT22;42154;51.992;5.896;2023-05-10T05:08:56;14.10;99.90
56240;DHT22;42154;51.992;5.896;2023-05-10T05:11:22;14.20;99.90
56240;DHT22;42154;51.992;5.896;2023-05-10T05:13:47;14.20;99.90
56240;DHT22;42154;51.992;5.896;2023-05-10T05:16:13;14.20;99.90
56240;DHT22;42154;51.992;5.896;2023-05-10T05:18:39;14.20;99.90
56240;DHT22;42154;51.992;5.896;2023-05-10T05:21:17;14.30;99.90
56240;DHT22;42154;51.992;5.896;2023-05-10T05:23:44;14.30;99.90
56240;DHT22;42154;51.992;5.896;2023-05-10T05:26:10;14.30;99.90
56240;DHT22;42154;51.992;5.896;2023-05-10T05:28:36;14.30;99.90
56240;DHT22;42154;51.992;5.896;2023-05-10T05:31:06;14.30;99.90
56240;DHT22;42154;51.992;5.896;2023-05-10T05:33:33;14.30;99.90
56240;DHT22;42154;51.992;5.896;2023-05-10T05:36:03;14.30;99.90
56240;DHT22;42154;51.992;5.896;2023-05-10T05:38:29;14.30;99.90
56240;DHT22;42154;51.992;5.896;2023-05-10T05:40:55;14.40;99.90
56240;DHT22;42154;51.992;5.896;2023-05-10T05:43:20;14.40;99.90
56240;DHT22;42154;51.992;5.896;2023-05-10T05:45:46;14.50;99.90
56240;DHT22;42154;51.992;5.896;2023-05-10T05:48:12;14.50;99.90
56240;DHT22;42154;51.992;5.896;2023-05-10T05:50:38;14.50;99.90
56240;DHT22;42154;51.992;5.896;2023-05-10T05:53:03;14.60;99.90
56240;DHT22;42154;51.992;5.896;2023-05-10T05:55:29;14.60;99.90
56240;DHT22;42154;51.992;5.896;2023-05-10T05:57:57;14.70;99.90
56240;DHT22;42154;51.992;5.896;2023-05-10T06:00:23;14.70;99.90
56240;DHT22;42154;51.992;5.896;2023-05-10T06:02:49;14.70;99.90
56240;DHT22;42154;51.992;5.896;2023-05-10T06:05:14;14.70;99.90
56240;DHT22;42154;51.992;5.896;2023-05-10T06:07:40;14.80;99.90
56240;DHT22;42154;51.992;5.896;2023-05-10T06:10:08;14.80;99.90
56240;DHT22;42154;51.992;5.896;2023-05-10T06:12:34;14.80;99.90
56240;DHT22;42154;51.992;5.896;2023-05-10T06:15:00;14.70;99.90
56240;DHT22;42154;51.992;5.896;2023-05-10T06:17:26;14.80;99.90
56240;DHT22;42154;51.992;5.896;2023-05-10T06:19:51;14.70;99.90
56240;DHT22;42154;51.992;5.896;2023-05-10T06:22:17;14.80;99.90
56240;DHT22;42154;51.992;5.896;2023-05-10T06:24:43;14.80;99.90
56240;DHT22;42154;51.992;5.896;2023-05-10T06:27:09;14.80;99.90
56240;DHT22;42154;51.992;5.896;2023-05-10T06:29:34;14.70;99.90
56240;DHT22;42154;51.992;5.896;2023-05-10T06:32:00;14.70;99.90
56240;DHT22;42154;51.992;5.896;2023-05-10T06:34:26;14.60;99.90
56240;DHT22;42154;51.992;5.896;2023-05-10T06:36:52;14.60;99.90
56240;DHT22;42154;51.992;5.896;2023-05-10T06:39:18;14.50;99.90
56240;DHT22;42154;51.992;5.896;2023-05-10T06:41:44;14.50;99.90
56240;DHT22;42154;51.992;5.896;2023-05-10T06:44:09;14.50;99.90
56240;DHT22;42154;51.992;5.896;2023-05-10T06:46:36;14.40;99.90
56240;DHT22;42154;51.992;5.896;2023-05-10T06:49:01;14.40;99.90
56240;DHT22;42154;51.992;5.896;2023-05-10T06:51:27;14.40;99.90
56240;DHT22;42154;51.992;5.896;2023-05-10T06:53:53;14.40;99.90
56240;DHT22;42154;51.992;5.896;2023-05-10T06:56:19;14.50;99.90
56240;DHT22;42154;51.992;5.896;2023-05-10T06:58:47;14.50;99.90
56240;DHT22;42154;51.992;5.896;2023-05-10T07:01:13;14.50;99.90
56240;DHT22;42154;51.992;5.896;2023-05-10T07:03:39;14.50;99.90
56240;DHT22;42154;51.992;5.896;2023-05-10T07:06:05;14.60;99.90
56240;DHT22;42154;51.992;5.896;2023-05-10T07:08:35;14.60;99.90
56240;DHT22;42154;51.992;5.896;2023-05-10T07:11:05;14.60;99.90
56240;DHT22;42154;51.992;5.896;2023-05-10T07:13:33;14.70;99.90
56240;DHT22;42154;51.992;5.896;2023-05-10T07:16:00;14.70;99.90
56240;DHT22;42154;51.992;5.896;2023-05-10T07:18:26;14.80;99.90
56240;DHT22;42154;51.992;5.896;2023-05-10T07:20:52;14.80;99.90
56240;DHT22;42154;51.992;5.896;2023-05-10T07:23:18;14.90;99.90
56240;DHT22;42154;51.992;5.896;2023-05-10T07:25:47;14.90;99.90
56240;DHT22;42154;51.992;5.896;2023-05-10T07:28:14;14.90;99.90
56240;DHT22;42154;51.992;5.896;2023-05-10T07:30:40;14.90;99.90
56240;DHT22;42154;51.992;5.896;2023-05-10T07:33:08;15.00;99.90
56240;DHT22;42154;51.992;5.896;2023-05-10T07:35:34;15.10;99.90
56240;DHT22;42154;51.992;5.896;2023-05-10T07:38:01;15.20;99.90
56240;DHT22;42154;51.992;5.896;2023-05-10T07:40:27;15.30;99.90
56240;DHT22;42154;51.992;5.896;2023-05-10T07:42:53;15.40;99.90
56240;DHT22;42154;51.992;5.896;2023-05-10T07:45:19;15.40;99.90
56240;DHT22;42154;51.992;5.896;2023-05-10T07:47:44;15.40;99.90
56240;DHT22;42154;51.992;5.896;2023-05-10T07:50:10;15.50;99.90
56240;DHT22;42154;51.992;5.896;2023-05-10T07:52:36;15.50;99.90
56240;DHT22;42154;51.992;5.896;2023-05-10T07:55:02;15.60;99.90
56240;DHT22;42154;51.992;5.896;2023-05-10T07:57:28;15.60;99.90
56240;DHT22;42154;51.992;5.896;2023-05-10T07:59:53;15.50;99.90
56240;DHT22;42154;51.992;5.896;2023-05-10T08:02:19;15.50;99.90
56240;DHT22;42154;51.992;5.896;2023-05-10T08:04:45;15.50;99.90
56240;DHT22;42154;51.992;5.896;2023-05-10T08:07:11;15.50;99.90
56240;DHT22;42154;51.992;5.896;2023-05-10T08:09:38;15.60;99.90
56240;DHT22;42154;51.992;5.896;2023-05-10T08:12:04;15.60;99.90
56240;DHT22;42154;51.992;5.896;2023-05-10T08:14:30;15.60;99.90
56240;DHT22;42154;51.992;5.896;2023-05-10T08:16:55;15.70;99.90
56240;DHT22;42154;51.992;5.896;2023-05-10T08:19:21;15.80;99.90
56240;DHT22;42154;51.992;5.896;2023-05-10T08:21:48;15.80;99.90
56240;DHT22;42154;51.992;5.896;2023-05-10T08:24:14;15.80;99.90
56240;DHT22;42154;51.992;5.896;2023-05-10T08:26:39;15.90;99.90
56240;DHT22;42154;51.992;5.896;2023-05-10T08:29:05;15.90;99.90
56240;DHT22;42154;51.992;5.896;2023-05-10T08:31:31;15.90;99.90
56240;DHT22;42154;51.992;5.896;2023-05-10T08:33:57;15.80;99.90
56240;DHT22;42154;51.992;5.896;2023-05-10T08:36:23;15.80;99.90
56240;DHT22;42154;51.992;5.896;2023-05-10T08:38:53;15.80;99.90
56240;DHT22;42154;51.992;5.896;2023-05-10T08:41:22;15.80;99.90
56240;DHT22;42154;51.992;5.896;2023-05-10T08:43:53;15.70;99.90
56240;DHT22;42154;51.992;5.896;2023-05-10T08:46:20;15.60;99.90
56240;DHT22;42154;51.992;5.896;2023-05-10T08:48:48;15.60;99.90
56240;DHT22;42154;51.992;5.896;2023-05-10T08:51:19;15.60;99.90
56240;DHT22;42154;51.992;5.896;2023-05-10T08:53:45;15.60;99.90
56240;DHT22;42154;51.992;5.896;2023-05-10T08:56:12;15.70;99.90
56240;DHT22;42154;51.992;5.896;2023-05-10T08:58:38;15.70;99.90
56240;DHT22;42154;51.992;5.896;2023-05-10T09:01:07;15.80;99.90
56240;DHT22;42154;51.992;5.896;2023-05-10T09:03:35;15.80;99.90
56240;DHT22;42154;51.992;5.896;2023-05-10T09:06:03;15.80;99.90
56240;DHT22;42154;51.992;5.896;2023-05-10T09:08:28;15.80;99.90
56240;DHT22;42154;51.992;5.896;2023-05-10T09:10:56;15.80;99.90
56240;DHT22;42154;51.992;5.896;2023-05-10T09:13:23;15.80;99.90
56240;DHT22;42154;51.992;5.896;2023-05-10T09:15:49;15.80;99.90
56240;DHT22;42154;51.992;5.896;2023-05-10T09:18:15;15.90;99.90
56240;DHT22;42154;51.992;5.896;2023-05-10T09:20:41;16.10;99.90
56240;DHT22;42154;51.992;5.896;2023-05-10T09:23:07;16.20;99.90
56240;DHT22;42154;51.992;5.896;2023-05-10T09:25:33;16.40;99.90
56240;DHT22;42154;51.992;5.896;2023-05-10T09:27:59;16.50;99.90
56240;DHT22;42154;51.992;5.896;2023-05-10T09:30:27;16.60;99.90
56240;DHT22;42154;51.992;5.896;2023-05-10T09:32:54;16.70;99.90
56240;DHT22;42154;51.992;5.896;2023-05-10T09:35:22;16.60;99.90
56240;DHT22;42154;51.992;5.896;2023-05-10T09:37:54;16.50;99.90
56240;DHT22;42154;51.992;5.896;2023-05-10T09:40:22;16.40;99.90
56240;DHT22;42154;51.992;5.896;2023-05-10T09:43:07;16.40;99.90
56240;DHT22;42154;51.992;5.896;2023-05-10T09:45:34;16.40;99.90
56240;DHT22;42154;51.992;5.896;2023-05-10T09:48:01;16.40;99.90
56240;DHT22;42154;51.992;5.896;2023-05-10T09:50:28;16.40;99.90
56240;DHT22;42154;51.992;5.896;2023-05-10T09:53:02;16.40;99.90
56240;DHT22;42154;51.992;5.896;2023-05-10T09:55:43;16.40;99.90
56240;DHT22;42154;51.992;5.896;2023-05-10T09:58:14;16.50;99.90
56240;DHT22;42154;51.992;5.896;2023-05-10T10:00:42;16.50;99.90
56240;DHT22;42154;51.992;5.896;2023-05-10T10:03:16;16.50;99.90
56240;DHT22;42154;51.992;5.896;2023-05-10T10:05:42;16.50;99.90
56240;DHT22;42154;51.992;5.896;2023-05-10T10:08:09;16.60;99.90
56240;DHT22;42154;51.992;5.896;2023-05-10T10:10:35;16.60;99.90
56240;DHT22;42154;51.992;5.896;2023-05-10T10:13:01;16.60;99.90
56240;DHT22;42154;51.992;5.896;2023-05-10T10:15:27;16.50;99.90
56240;DHT22;42154;51.992;5.896;2023-05-10T10:17:53;16.60;99.90
56240;DHT22;42154;51.992;5.896;2023-05-10T10:20:21;16.50;99.90
56240;DHT22;42154;51.992;5.896;2023-05-10T10:22:48;16.40;99.90
56240;DHT22;42154;51.992;5.896;2023-05-10T10:25:15;16.40;99.90
56240;DHT22;42154;51.992;5.896;2023-05-10T10:35:29;16.40;99.90
56240;DHT22;42154;51.992;5.896;2023-05-10T10:37:55;16.40;99.90
56240;DHT22;42154;51.992;5.896;2023-05-10T10:40:28;16.30;99.90
56240;DHT22;42154;51.992;5.896;2023-05-10T10:42:55;16.50;99.90
56240;DHT22;42154;51.992;5.896;2023-05-10T10:45:22;16.60;99.90
56240;DHT22;42154;51.992;5.896;2023-05-10T10:47:48;16.90;99.90
56240;DHT22;42154;51.992;5.896;2023-05-10T10:50:14;17.00;99.90
56240;DHT22;42154;51.992;5.896;2023-05-10T10:52:43;17.10;99.90
56240;DHT22;42154;51.992;5.896;2023-05-10T10:55:18;17.20;99.90
56240;DHT22;42154;51.992;5.896;2023-05-10T10:57:52;17.40;99.90
56240;DHT22;42154;51.992;5.896;2023-05-10T11:00:38;17.50;99.90
56240;DHT22;42154;51.992;5.896;2023-05-10T11:03:10;17.60;99.90
56240;DHT22;42154;51.992;5.896;2023-05-10T11:10:36;17.50;99.90
56240;DHT22;42154;51.992;5.896;2023-05-10T11:13:10;17.50;99.90
56240;DHT22;42154;51.992;5.896;2023-05-10T11:15:38;17.50;99.90
56240;DHT22;42154;51.992;5.896;2023-05-10T11:18:23;17.60;99.90
56240;DHT22;42154;51.992;5.896;2023-05-10T11:20:55;17.70;99.90
56240;DHT22;42154;51.992;5.896;2023-05-10T11:23:21;17.90;99.90
56240;DHT22;42154;51.992;5.896;2023-05-10T11:25:48;18.00;99.90
56240;DHT22;42154;51.992;5.896;2023-05-10T11:28:14;18.00;99.90
56240;DHT22;42154;51.992;5.896;2023-05-10T11:30:43;18.00;99.90
56240;DHT22;42154;51.992;5.896;2023-05-10T11:33:14;18.10;99.90
56240;DHT22;42154;51.992;5.896;2023-05-10T11:35:41;18.20;99.90
56240;DHT22;42154;51.992;5.896;2023-05-10T11:38:10;18.10;99.90
56240;DHT22;42154;51.992;5.896;2023-05-10T11:40:37;18.10;99.90
56240;DHT22;42154;51.992;5.896;2023-05-10T11:43:04;18.10;99.90
56240;DHT22;42154;51.992;5.896;2023-05-10T11:45:34;18.10;99.90
56240;DHT22;42154;51.992;5.896;2023-05-10T11:48:01;18.20;99.90
56240;DHT22;42154;51.992;5.896;2023-05-10T11:50:28;18.20;99.90
56240;DHT22;42154;51.992;5.896;2023-05-10T11:52:55;18.20;99.90
56240;DHT22;42154;51.992;5.896;2023-05-10T11:55:21;18.10;99.90
56240;DHT22;42154;51.992;5.896;2023-05-10T11:57:48;18.10;99.90
56240;DHT22;42154;51.992;5.896;2023-05-10T12:00:16;18.10;99.90
56240;DHT22;42154;51.992;5.896;2023-05-10T12:02:42;18.10;99.90
56240;DHT22;42154;51.992;5.896;2023-05-10T12:05:09;18.10;99.90
56240;DHT22;42154;51.992;5.896;2023-05-10T12:07:35;18.10;99.90
56240;DHT22;42154;51.992;5.896;2023-05-10T12:10:08;18.00;99.90
56240;DHT22;42154;51.992;5.896;2023-05-10T12:12:42;18.00;99.90
56240;DHT22;42154;51.992;5.896;2023-05-10T12:15:20;18.00;99.90
56240;DHT22;42154;51.992;5.896;2023-05-10T12:17:47;18.20;99.90
56240;DHT22;42154;51.992;5.896;2023-05-10T12:22:54;18.60;99.90
56240;DHT22;42154;51.992;5.896;2023-05-10T12:25:21;18.70;99.90
56240;DHT22;42154;51.992;5.896;2023-05-10T12:27:55;18.70;99.90
56240;DHT22;42154;51.992;5.896;2023-05-10T12:30:22;18.70;99.90
56240;DHT22;42154;51.992;5.896;2023-05-10T12:32:48;18.90;99.90
56240;DHT22;42154;51.992;5.896;2023-05-10T12:35:14;19.00;99.90
56240;DHT22;42154;51.992;5.896;2023-05-10T12:37:42;19.00;99.90
56240;DHT22;42154;51.992;5.896;2023-05-10T12:40:09;19.00;99.90
56240;DHT22;42154;51.992;5.896;2023-05-10T12:42:36;19.00;99.90
56240;DHT22;42154;51.992;5.896;2023-05-10T12:45:04;19.10;99.90
56240;DHT22;42154;51.992;5.896;2023-05-10T12:47:31;19.10;99.90
56240;DHT22;42154;51.992;5.896;2023-05-10T12:49:57;19.20;99.90
56240;DHT22;42154;51.992;5.896;2023-05-10T12:52:24;19.20;99.90
56240;DHT22;42154;51.992;5.896;2023-05-10T12:54:49;19.30;99.90
56240;DHT22;42154;51.992;5.896;2023-05-10T12:57:15;19.40;99.90
56240;DHT22;42154;51.992;5.896;2023-05-10T12:59:41;19.50;99.90
56240;DHT22;42154;51.992;5.896;2023-05-10T13:02:07;19.60;99.90
56240;DHT22;42154;51.992;5.896;2023-05-10T13:04:32;19.70;99.90
56240;DHT22;42154;51.992;5.896;2023-05-10T13:06:58;19.70;99.90
56240;DHT22;42154;51.992;5.896;2023-05-10T13:09:25;19.70;99.90
56240;DHT22;42154;51.992;5.896;2023-05-10T13:11:51;19.70;99.90
56240;DHT22;42154;51.992;5.896;2023-05-10T13:14:19;19.80;99.90
56240;DHT22;42154;51.992;5.896;2023-05-10T13:16:48;19.90;99.90
56240;DHT22;42154;51.992;5.896;2023-05-10T13:19:15;19.90;99.90
56240;DHT22;42154;51.992;5.896;2023-05-10T13:21:41;19.90;99.90
56240;DHT22;42154;51.992;5.896;2023-05-10T13:24:07;20.00;99.90
56240;DHT22;42154;51.992;5.896;2023-05-10T13:26:33;20.00;99.90
56240;DHT22;42154;51.992;5.896;2023-05-10T13:28:59;19.90;99.90
56240;DHT22;42154;51.992;5.896;2023-05-10T13:31:25;19.90;99.90
56240;DHT22;42154;51.992;5.896;2023-05-10T13:33:50;19.80;99.90
56240;DHT22;42154;51.992;5.896;2023-05-10T13:36:16;19.70;99.90
56240;DHT22;42154;51.992;5.896;2023-05-10T13:38:42;19.70;99.90
56240;DHT22;42154;51.992;5.896;2023-05-10T13:41:08;19.70;99.90
56240;DHT22;42154;51.992;5.896;2023-05-10T13:43:33;19.70;99.90
56240;DHT22;42154;51.992;5.896;2023-05-10T13:45:59;19.70;99.90
56240;DHT22;42154;51.992;5.896;2023-05-10T13:48:25;19.60;99.90
56240;DHT22;42154;51.992;5.896;2023-05-10T13:50:50;19.60;99.90
56240;DHT22;42154;51.992;5.896;2023-05-10T13:53:16;19.50;99.90
56240;DHT22;42154;51.992;5.896;2023-05-10T13:55:42;19.40;99.90
56240;DHT22;42154;51.992;5.896;2023-05-10T13:58:07;19.20;99.90
56240;DHT22;42154;51.992;5.896;2023-05-10T14:00:33;19.00;99.90
56240;DHT22;42154;51.992;5.896;2023-05-10T14:02:59;18.80;99.90
56240;DHT22;42154;51.992;5.896;2023-05-10T14:05:25;18.60;99.90
56240;DHT22;42154;51.992;5.896;2023-05-10T14:07:50;18.40;99.90
56240;DHT22;42154;51.992;5.896;2023-05-10T14:10:16;18.30;99.90
56240;DHT22;42154;51.992;5.896;2023-05-10T14:12:42;18.20;99.90
56240;DHT22;42154;51.992;5.896;2023-05-10T14:15:08;18.10;99.90
56240;DHT22;42154;51.992;5.896;2023-05-10T14:17:35;18.00;99.90
56240;DHT22;42154;51.992;5.896;2023-05-10T14:20:01;18.00;99.90
56240;DHT22;42154;51.992;5.896;2023-05-10T14:22:27;18.00;99.90
56240;DHT22;42154;51.992;5.896;2023-05-10T14:24:54;18.00;99.90
56240;DHT22;42154;51.992;5.896;2023-05-10T14:27:19;18.00;99.90
56240;DHT22;42154;51.992;5.896;2023-05-10T14:29:45;17.90;99.90
56240;DHT22;42154;51.992;5.896;2023-05-10T14:32:11;18.00;99.90
56240;DHT22;42154;51.992;5.896;2023-05-10T14:34:37;17.90;99.90
56240;DHT22;42154;51.992;5.896;2023-05-10T14:37:02;17.80;99.90
56240;DHT22;42154;51.992;5.896;2023-05-10T14:39:28;17.70;99.90
56240;DHT22;42154;51.992;5.896;2023-05-10T14:41:55;17.60;99.90
56240;DHT22;42154;51.992;5.896;2023-05-10T14:44:21;17.50;99.90
56240;DHT22;42154;51.992;5.896;2023-05-10T14:46:47;17.50;99.90
56240;DHT22;42154;51.992;5.896;2023-05-10T14:49:14;17.40;99.90
56240;DHT22;42154;51.992;5.896;2023-05-10T14:51:40;17.30;99.90
56240;DHT22;42154;51.992;5.896;2023-05-10T14:54:05;17.30;99.90
56240;DHT22;42154;51.992;5.896;2023-05-10T14:56:31;17.20;99.90
56240;DHT22;42154;51.992;5.896;2023-05-10T14:58:57;17.30;99.90
56240;DHT22;42154;51.992;5.896;2023-05-10T15:01:23;17.30;99.90
56240;DHT22;42154;51.992;5.896;2023-05-10T15:03:49;17.30;99.90
56240;DHT22;42154;51.992;5.896;2023-05-10T15:06:15;17.30;99.90
56240;DHT22;42154;51.992;5.896;2023-05-10T15:08:44;17.30;99.90
56240;DHT22;42154;51.992;5.896;2023-05-10T15:11:09;17.40;99.90
56240;DHT22;42154;51.992;5.896;2023-05-10T15:13:35;17.40;99.90
56240;DHT22;42154;51.992;5.896;2023-05-10T15:16:01;17.40;99.90
56240;DHT22;42154;51.992;5.896;2023-05-10T15:18:26;17.50;99.90
56240;DHT22;42154;51.992;5.896;2023-05-10T15:20:52;17.50;99.90
56240;DHT22;42154;51.992;5.896;2023-05-10T15:23:18;17.40;99.90
56240;DHT22;42154;51.992;5.896;2023-05-10T15:25:44;17.40;99.90
56240;DHT22;42154;51.992;5.896;2023-05-10T15:28:09;17.30;99.90
56240;DHT22;42154;51.992;5.896;2023-05-10T15:30:35;17.40;99.90
56240;DHT22;42154;51.992;5.896;2023-05-10T15:33:01;17.40;99.90
56240;DHT22;42154;51.992;5.896;2023-05-10T15:35:27;17.30;99.90
56240;DHT22;42154;51.992;5.896;2023-05-10T15:37:53;17.30;99.90
56240;DHT22;42154;51.992;5.896;2023-05-10T15:40:18;17.40;99.90
56240;DHT22;42154;51.992;5.896;2023-05-10T15:42:44;17.40;99.90
56240;DHT22;42154;51.992;5.896;2023-05-10T15:45:10;17.40;99.90
56240;DHT22;42154;51.992;5.896;2023-05-10T15:47:37;17.40;99.90
56240;DHT22;42154;51.992;5.896;2023-05-10T15:50:06;17.40;99.90
56240;DHT22;42154;51.992;5.896;2023-05-10T15:52:31;17.40;99.90
56240;DHT22;42154;51.992;5.896;2023-05-10T15:54:57;17.40;99.90
56240;DHT22;42154;51.992;5.896;2023-05-10T15:57:23;17.50;99.90
56240;DHT22;42154;51.992;5.896;2023-05-10T15:59:49;17.50;99.90
56240;DHT22;42154;51.992;5.896;2023-05-10T16:02:15;17.60;99.90
56240;DHT22;42154;51.992;5.896;2023-05-10T16:04:42;17.70;99.90
56240;DHT22;42154;51.992;5.896;2023-05-10T16:07:09;17.70;99.90